createdAt,value
2017-04-24T00:00:09.297Z,6.13
2017-04-24T00:01:15.756Z,6.65
2017-04-24T00:02:20.637Z,5.62
2017-04-24T00:03:26.876Z,6.98
2017-04-24T00:04:31.538Z,6.42
2017-04-24T00:05:37.094Z,6.60
2017-04-24T00:06:42.556Z,6.50
2017-04-24T00:07:48.053Z,5.82
2017-04-24T00:08:55.357Z,5.93
2017-04-24T00:10:00.205Z,5.85
2017-04-24T00:11:06.393Z,6.92
2017-04-24T00:12:11.201Z,6.15
2017-04-24T00:13:16.799Z,6.80
2017-04-24T00:14:23.821Z,5.85
2017-04-24T00:15:28.787Z,5.27
2017-04-24T00:16:34.342Z,7.17
2017-04-24T00:17:39.918Z,5.87
2017-04-24T00:18:45.393Z,6.38
2017-04-24T00:19:50.332Z,6.18
2017-04-24T00:20:55.845Z,6.15
2017-04-24T00:22:01.428Z,6.18
2017-04-24T00:23:07.112Z,6.58
2017-04-24T00:24:12.557Z,6.05
2017-04-24T00:25:18.934Z,6.33
2017-04-24T00:26:23.709Z,7.45
2017-04-24T00:27:29.317Z,6.40
2017-04-24T00:28:34.768Z,6.68
2017-04-24T00:29:40.346Z,6.18
2017-04-24T00:30:45.928Z,6.12
2017-04-24T00:31:51.523Z,6.90
2017-04-24T00:32:57.045Z,7.60
2017-04-24T00:34:02.570Z,7.03
2017-04-24T00:35:08.145Z,8.32
2017-04-24T00:49:12.558Z,6.92
2017-04-24T00:50:18.115Z,8.35
2017-04-24T00:51:24.426Z,7.75
2017-04-24T00:52:29.323Z,10.00
2017-04-24T00:53:34.893Z,7.02
2017-04-24T00:54:40.465Z,6.20
2017-04-24T00:55:45.949Z,7.95
2017-04-24T00:56:51.646Z,7.07
2017-04-24T00:57:58.025Z,7.20
2017-04-24T00:59:02.851Z,7.33
2017-04-24T01:00:08.561Z,9.00
2017-04-24T01:01:14.032Z,7.42
2017-04-24T01:02:19.805Z,8.42
2017-04-24T01:03:25.210Z,6.92
2017-04-24T01:04:31.591Z,7.20
2017-04-24T01:05:37.394Z,7.53
2017-04-24T01:06:42.804Z,7.40
2017-04-24T01:07:48.233Z,7.63
2017-04-24T01:08:54.510Z,7.78
2017-04-24T01:09:59.425Z,7.67
2017-04-24T01:11:07.700Z,7.42
2017-04-24T01:12:12.531Z,7.45
2017-04-24T01:13:18.134Z,7.22
2017-04-24T01:14:23.818Z,7.38
2017-04-24T01:15:29.410Z,7.43
2017-04-24T01:16:35.050Z,7.73
2017-04-24T01:17:40.697Z,7.75
2017-04-24T01:18:46.997Z,7.38
2017-04-24T01:19:51.860Z,8.03
2017-04-24T01:20:57.369Z,7.70
2017-04-24T01:22:02.997Z,7.23
2017-04-24T01:23:09.272Z,7.47
2017-04-24T01:24:14.034Z,7.30
2017-04-24T01:25:19.507Z,7.60
2017-04-24T01:26:24.282Z,7.17
2017-04-24T01:27:29.781Z,7.53
2017-04-24T01:28:35.422Z,8.90
2017-04-24T01:29:41.727Z,7.80
2017-04-24T01:30:46.557Z,7.83
2017-04-24T01:31:52.056Z,7.98
2017-04-24T01:32:58.334Z,7.63
2017-04-24T01:34:04.029Z,6.98
2017-04-24T01:35:10.458Z,7.02
2017-04-24T01:36:15.280Z,7.03
2017-04-24T01:37:21.035Z,7.15
2017-04-24T01:38:27.153Z,7.12
2017-04-24T01:39:32.017Z,6.57
2017-04-24T01:40:37.450Z,6.67
2017-04-24T01:41:43.796Z,7.95
2017-04-24T01:42:49.388Z,8.07
2017-04-24T01:43:54.100Z,7.13
2017-04-24T01:44:59.558Z,7.17
2017-04-24T01:46:05.236Z,7.70
2017-04-24T01:47:10.031Z,7.60
2017-04-24T01:48:15.533Z,7.95
2017-04-24T01:49:21.234Z,6.98
2017-04-24T01:50:26.703Z,7.32
2017-04-24T01:51:33.020Z,7.55
2017-04-24T01:52:37.785Z,7.22
2017-04-24T01:53:43.301Z,7.83
2017-04-24T01:54:48.867Z,7.15
2017-04-24T01:55:54.281Z,6.70
2017-04-24T01:56:59.837Z,7.82
2017-04-24T01:58:05.416Z,7.98
2017-04-24T01:59:10.981Z,10.02
2017-04-24T02:00:16.621Z,7.43
2017-04-24T02:01:22.129Z,9.80
2017-04-24T02:02:27.668Z,7.05
2017-04-24T02:03:34.022Z,7.67
2017-04-24T02:04:38.896Z,8.38
2017-04-24T02:05:45.372Z,7.35
2017-04-24T02:06:51.005Z,8.55
2017-04-24T02:07:55.872Z,7.18
2017-04-24T02:09:01.330Z,7.95
2017-04-24T02:10:07.665Z,8.23
2017-04-24T02:11:13.294Z,6.27
2017-04-24T02:12:18.901Z,7.65
2017-04-24T02:13:24.348Z,7.33
2017-04-24T02:14:29.262Z,8.05
2017-04-24T02:15:34.864Z,7.05
2017-04-24T02:16:40.896Z,6.87
2017-04-24T02:17:46.488Z,7.78
2017-04-24T02:18:52.754Z,7.62
2017-04-24T02:19:58.297Z,7.88
2017-04-24T02:21:03.033Z,7.47
2017-04-24T02:22:08.750Z,7.05
2017-04-24T02:23:14.141Z,7.15
2017-04-24T02:24:18.946Z,6.87
2017-04-24T02:25:24.382Z,7.42
2017-04-24T02:26:30.012Z,7.78
2017-04-24T02:27:36.465Z,8.15
2017-04-24T02:28:42.092Z,7.72
2017-04-24T02:29:47.777Z,10.07
2017-04-24T02:30:53.345Z,8.27
2017-04-24T02:31:58.176Z,8.20
2017-04-24T02:33:04.822Z,7.83
2017-04-24T02:34:10.470Z,8.57
2017-04-24T02:35:16.054Z,8.38
2017-04-24T02:36:21.261Z,7.45
2017-04-24T02:37:27.630Z,8.58
2017-04-24T02:38:33.173Z,8.60
2017-04-24T02:39:38.002Z,8.72
2017-04-24T02:40:43.502Z,8.05
2017-04-24T02:41:49.005Z,8.42
2017-04-24T02:42:54.589Z,7.70
2017-04-24T02:44:00.113Z,8.27
2017-04-24T02:45:06.379Z,7.98
2017-04-24T02:46:11.082Z,7.15
2017-04-24T02:47:16.742Z,8.85
2017-04-24T02:48:22.367Z,7.88
2017-04-24T02:49:27.905Z,7.82
2017-04-24T02:50:33.627Z,7.13
2017-04-24T02:51:39.070Z,7.90
2017-04-24T02:52:44.510Z,9.08
2017-04-24T02:53:50.151Z,7.02
2017-04-24T02:54:55.936Z,7.97
2017-04-24T02:56:02.073Z,7.68
2017-04-24T02:57:06.883Z,8.80
2017-04-24T02:58:12.413Z,7.53
2017-04-24T02:59:17.955Z,8.50
2017-04-24T03:00:24.457Z,7.53
2017-04-24T03:01:30.041Z,8.50
2017-04-24T03:02:35.628Z,8.65
2017-04-24T03:03:41.133Z,8.80
2017-04-24T03:04:46.714Z,9.08
2017-04-24T03:05:52.397Z,8.20
2017-04-24T03:06:57.182Z,8.90
2017-04-24T03:08:03.697Z,10.08
2017-04-24T03:09:08.626Z,7.98
2017-04-24T03:10:15.081Z,10.93
2017-04-24T03:11:21.009Z,14.80
2017-04-24T03:12:25.740Z,11.38
2017-04-24T03:13:32.121Z,9.87
2017-04-24T03:14:37.704Z,8.73
2017-04-24T03:15:42.452Z,8.20
2017-04-24T03:16:48.011Z,7.93
2017-04-24T03:17:53.693Z,7.93
2017-04-24T03:19:00.019Z,8.80
2017-04-24T03:20:04.916Z,11.50
2017-04-24T03:21:11.307Z,18.17
2017-04-24T03:22:16.222Z,16.17
2017-04-24T03:23:21.641Z,13.95
2017-04-24T03:24:27.241Z,10.70
2017-04-24T03:25:32.867Z,9.55
2017-04-24T03:26:38.465Z,10.60
2017-04-24T03:27:44.117Z,15.32
2017-04-24T03:28:49.749Z,14.95
2017-04-24T03:29:55.376Z,12.98
2017-04-24T03:31:00.978Z,10.70
2017-04-24T03:32:07.348Z,10.47
2017-04-24T03:33:12.298Z,11.52
2017-04-24T03:34:17.785Z,12.85
2017-04-24T03:35:23.436Z,10.85
2017-04-24T03:36:29.056Z,11.97
2017-04-24T03:37:34.514Z,10.22
2017-04-24T03:38:42.806Z,8.98
2017-04-24T03:39:47.742Z,8.95
2017-04-24T03:40:54.132Z,9.17
2017-04-24T03:41:58.918Z,7.92
2017-04-24T03:43:04.485Z,8.68
2017-04-24T03:44:10.028Z,9.08
2017-04-24T03:45:16.220Z,9.13
2017-04-24T03:46:21.789Z,9.08
2017-04-24T03:47:27.508Z,8.28
2017-04-24T03:48:32.282Z,8.60
2017-04-24T03:49:37.861Z,7.77
2017-04-24T03:50:43.317Z,8.17
2017-04-24T03:51:48.741Z,8.90
2017-04-24T03:52:55.100Z,8.32
2017-04-24T03:54:00.916Z,8.43
2017-04-24T03:55:05.841Z,8.12
2017-04-24T03:56:11.416Z,8.88
2017-04-24T03:57:17.135Z,9.07
2017-04-24T03:58:23.561Z,8.57
2017-04-24T03:59:28.210Z,9.12
2017-04-24T04:00:34.546Z,9.20
2017-04-24T04:01:39.325Z,8.60
2017-04-24T04:02:44.930Z,8.27
2017-04-24T04:03:50.424Z,7.78
2017-04-24T04:04:56.002Z,7.85
2017-04-24T04:06:01.721Z,9.30
2017-04-24T04:07:07.107Z,8.00
2017-04-24T04:08:12.718Z,11.43
2017-04-24T04:09:18.343Z,10.37
2017-04-24T04:10:24.776Z,10.48
2017-04-24T04:11:30.260Z,9.75
2017-04-24T04:12:34.986Z,10.35
2017-04-24T04:13:41.329Z,19.65
2017-04-24T04:14:46.902Z,21.13
2017-04-24T04:15:52.503Z,25.83
2017-04-24T04:16:57.409Z,37.32
2017-04-24T04:18:02.950Z,35.20
2017-04-24T04:19:08.560Z,48.00
2017-04-24T04:20:14.069Z,49.93
2017-04-24T04:21:19.589Z,29.25
2017-04-24T04:22:24.393Z,29.25
2017-04-24T04:23:29.910Z,26.07
2017-04-24T04:24:35.377Z,22.83
2017-04-24T04:25:40.996Z,29.13
2017-04-24T04:26:47.265Z,22.18
2017-04-24T04:27:52.809Z,12.85
2017-04-24T04:28:58.226Z,11.12
2017-04-24T04:30:02.929Z,9.70
2017-04-24T04:31:09.217Z,9.27
2017-04-24T04:32:14.066Z,9.25
2017-04-24T04:33:21.190Z,11.02
2017-04-24T04:34:26.083Z,10.02
2017-04-24T04:35:31.842Z,10.73
2017-04-24T04:36:37.218Z,8.48
2017-04-24T04:37:42.745Z,8.67
2017-04-24T04:38:49.064Z,9.22
2017-04-24T04:39:53.829Z,11.35
2017-04-24T04:41:00.201Z,9.45
2017-04-24T04:42:05.032Z,9.07
2017-04-24T04:43:11.401Z,9.45
2017-04-24T04:44:17.131Z,9.33
2017-04-24T04:45:22.124Z,14.12
2017-04-24T04:46:28.575Z,14.87
2017-04-24T04:47:33.421Z,12.10
2017-04-24T04:48:38.893Z,11.97
2017-04-24T04:49:44.622Z,12.07
2017-04-24T04:50:50.145Z,11.78
2017-04-24T04:51:55.732Z,11.43
2017-04-24T04:53:01.241Z,11.03
2017-04-24T04:54:06.917Z,10.22
2017-04-24T04:55:12.570Z,10.17
2017-04-24T04:56:18.886Z,9.97
2017-04-24T04:57:24.470Z,10.73
2017-04-24T04:58:29.250Z,10.72
2017-04-24T04:59:34.878Z,9.95
2017-04-24T05:00:41.212Z,11.07
2017-04-24T05:01:45.892Z,10.63
2017-04-24T05:02:51.637Z,10.00
2017-04-24T05:03:57.153Z,9.07
2017-04-24T05:05:02.601Z,8.97
2017-04-24T05:06:08.194Z,9.30
2017-04-24T05:07:13.011Z,9.20
2017-04-24T05:08:18.467Z,9.65
2017-04-24T05:09:24.834Z,10.00
2017-04-24T05:10:29.684Z,10.25
2017-04-24T05:11:36.132Z,9.67
2017-04-24T05:12:41.681Z,10.73
2017-04-24T05:13:47.398Z,10.03
2017-04-24T05:14:52.245Z,9.77
2017-04-24T05:15:56.965Z,9.85
2017-04-24T05:17:03.401Z,10.40
2017-04-24T05:18:08.294Z,11.75
2017-04-24T05:19:12.971Z,10.58
2017-04-24T05:20:19.364Z,10.83
2017-04-24T05:21:24.942Z,10.10
2017-04-24T05:22:29.725Z,8.87
2017-04-24T05:23:35.161Z,11.57
2017-04-24T05:24:40.908Z,10.03
2017-04-24T05:25:46.333Z,8.92
2017-04-24T05:26:51.197Z,10.05
2017-04-24T05:27:56.749Z,9.88
2017-04-24T05:29:02.164Z,10.00
2017-04-24T05:30:07.596Z,10.02
2017-04-24T05:31:12.514Z,9.50
2017-04-24T05:32:18.016Z,9.48
2017-04-24T05:33:23.693Z,8.63
2017-04-24T05:34:29.220Z,9.03
2017-04-24T05:35:34.820Z,9.83
2017-04-24T05:36:40.274Z,9.88
2017-04-24T05:37:45.892Z,7.80
2017-04-24T05:38:52.241Z,8.87
2017-04-24T05:39:57.045Z,8.83
2017-04-24T05:41:02.424Z,8.50
2017-04-24T05:42:08.124Z,8.80
2017-04-24T05:43:13.787Z,10.32
2017-04-24T05:44:19.381Z,9.07
2017-04-24T05:45:24.925Z,8.03
2017-04-24T05:46:30.401Z,8.33
2017-04-24T05:47:36.729Z,7.92
2017-04-24T05:48:42.375Z,8.42
2017-04-24T05:49:47.193Z,7.25
2017-04-24T05:50:52.797Z,8.65
2017-04-24T05:51:59.162Z,8.97
2017-04-24T05:53:04.821Z,7.53
2017-04-24T05:54:09.754Z,8.40
2017-04-24T05:55:16.153Z,8.85
2017-04-24T05:56:20.916Z,9.02
2017-04-24T05:57:27.286Z,8.67
2017-04-24T05:58:32.882Z,8.58
2017-04-24T05:59:39.256Z,8.68
2017-04-24T06:00:44.157Z,8.00
2017-04-24T06:01:49.569Z,7.82
2017-04-24T06:02:55.227Z,7.88
2017-04-24T06:04:00.772Z,7.92
2017-04-24T06:05:06.240Z,9.02
2017-04-24T06:06:11.189Z,8.23
2017-04-24T06:07:16.512Z,8.78
2017-04-24T06:08:22.002Z,8.20
2017-04-24T06:09:27.601Z,8.53
2017-04-24T06:10:33.007Z,7.95
2017-04-24T06:11:39.328Z,8.98
2017-04-24T06:12:44.919Z,8.00
2017-04-24T06:13:49.672Z,6.90
2017-04-24T06:14:55.256Z,7.95
2017-04-24T06:16:00.601Z,8.12
2017-04-24T06:17:06.244Z,8.30
2017-04-24T06:18:11.790Z,9.03
2017-04-24T06:19:17.423Z,7.82
2017-04-24T06:20:22.945Z,7.45
2017-04-24T06:21:28.433Z,8.05
2017-04-24T06:22:33.994Z,9.10
2017-04-24T06:23:40.196Z,8.60
2017-04-24T06:24:45.701Z,9.07
2017-04-24T06:25:51.861Z,8.68
2017-04-24T06:26:57.976Z,7.98
2017-04-24T06:28:04.842Z,8.88
2017-04-24T06:29:11.399Z,8.20
2017-04-24T06:30:17.681Z,9.58
2017-04-24T06:31:22.553Z,7.92
2017-04-24T06:32:28.824Z,9.53
2017-04-24T06:33:34.453Z,7.95
2017-04-24T06:34:39.164Z,8.22
2017-04-24T06:35:44.715Z,9.15
2017-04-24T06:36:51.124Z,9.08
2017-04-24T06:37:56.063Z,9.23
2017-04-24T06:39:02.337Z,7.87
2017-04-24T06:40:07.877Z,8.30
2017-04-24T06:41:13.646Z,9.58
2017-04-24T06:42:19.322Z,8.08
2017-04-24T06:43:25.166Z,8.55
2017-04-24T06:44:30.905Z,8.40
2017-04-24T06:45:36.058Z,8.58
2017-04-24T06:46:41.765Z,8.62
2017-04-24T06:47:48.131Z,8.20
2017-04-24T06:48:53.621Z,9.57
2017-04-24T06:49:59.211Z,7.97
2017-04-24T06:51:04.001Z,9.28
2017-04-24T06:52:09.601Z,9.97
2017-04-24T06:53:15.252Z,8.35
2017-04-24T06:54:21.003Z,8.20
2017-04-24T06:55:26.504Z,9.18
2017-04-24T06:56:32.910Z,8.68
2017-04-24T06:57:37.685Z,9.25
2017-04-24T06:58:44.112Z,8.72
2017-04-24T06:59:49.738Z,8.97
2017-04-24T07:00:55.273Z,8.78
2017-04-24T07:02:00.883Z,8.03
2017-04-24T07:03:08.722Z,9.67
2017-04-24T07:04:14.052Z,8.17
2017-04-24T07:05:18.785Z,9.28
2017-04-24T07:06:25.172Z,8.70
2017-04-24T07:07:29.976Z,8.35
2017-04-24T07:08:35.524Z,9.05
2017-04-24T07:09:41.890Z,8.22
2017-04-24T07:10:46.692Z,8.22
2017-04-24T07:11:52.429Z,10.22
2017-04-24T07:12:57.861Z,9.05
2017-04-24T07:14:03.381Z,9.78
2017-04-24T07:15:10.385Z,10.23
2017-04-24T07:16:15.596Z,8.67
2017-04-24T07:17:22.044Z,9.10
2017-04-24T07:18:26.786Z,8.77
2017-04-24T07:19:33.024Z,8.87
2017-04-24T07:20:37.790Z,7.97
2017-04-24T07:21:43.433Z,7.90
2017-04-24T07:22:48.997Z,10.75
2017-04-24T07:23:54.544Z,8.67
2017-04-24T07:25:00.746Z,8.60
2017-04-24T07:26:06.325Z,7.42
2017-04-24T07:27:11.145Z,7.63
2017-04-24T07:28:16.734Z,8.48
2017-04-24T07:29:23.013Z,8.52
2017-04-24T07:30:27.841Z,8.02
2017-04-24T07:31:33.481Z,8.97
2017-04-24T07:32:39.857Z,9.90
2017-04-24T07:33:44.713Z,7.58
2017-04-24T07:34:50.117Z,7.58
2017-04-24T07:35:54.899Z,7.50
2017-04-24T07:37:00.540Z,8.48
2017-04-24T07:38:06.069Z,7.82
2017-04-24T07:39:13.517Z,7.67
2017-04-24T07:40:18.404Z,8.05
2017-04-24T07:41:23.998Z,7.88
2017-04-24T07:42:28.693Z,6.80
2017-04-24T07:43:34.237Z,7.83
2017-04-24T07:44:40.218Z,7.40
2017-04-24T07:45:45.469Z,6.87
2017-04-24T07:46:51.685Z,8.12
2017-04-24T07:47:56.340Z,7.95
2017-04-24T07:49:01.951Z,7.40
2017-04-24T07:50:07.454Z,7.47
2017-04-24T07:51:12.862Z,8.75
2017-04-24T07:52:17.681Z,7.48
2017-04-24T07:53:23.232Z,8.53
2017-04-24T07:54:29.737Z,8.40
2017-04-24T07:55:35.338Z,10.53
2017-04-24T07:56:40.165Z,7.45
2017-04-24T07:57:44.844Z,7.58
2017-04-24T07:58:49.470Z,7.40
2017-04-24T07:59:54.118Z,6.67
2017-04-24T08:00:58.809Z,6.70
2017-04-24T08:02:04.423Z,7.17
2017-04-24T08:03:09.991Z,6.97
2017-04-24T08:04:15.476Z,10.80
2017-04-24T08:05:20.220Z,6.68
2017-04-24T08:06:25.824Z,7.72
2017-04-24T08:07:30.665Z,6.95
2017-04-24T08:08:36.062Z,8.35
2017-04-24T08:09:40.748Z,7.90
2017-04-24T08:10:46.189Z,7.28
2017-04-24T08:11:51.041Z,6.45
2017-04-24T08:12:56.701Z,6.47
2017-04-24T08:14:02.205Z,6.85
2017-04-24T08:15:08.622Z,9.15
2017-04-24T08:16:13.273Z,6.63
2017-04-24T08:17:18.948Z,6.88
2017-04-24T08:18:24.534Z,7.43
2017-04-24T08:19:30.349Z,7.10
2017-04-24T08:20:35.469Z,7.95
2017-04-24T08:21:40.972Z,6.30
2017-04-24T08:22:47.281Z,5.95
2017-04-24T08:23:51.985Z,7.08
2017-04-24T08:24:57.429Z,5.85
2017-04-24T08:26:02.334Z,4.45
2017-04-24T08:27:08.622Z,3.90
2017-04-24T08:28:13.578Z,4.23
2017-04-24T08:29:18.993Z,3.95
2017-04-24T08:30:24.688Z,5.72
2017-04-24T08:31:29.989Z,4.37
2017-04-24T08:32:35.513Z,3.33
2017-04-24T08:33:40.289Z,3.60
2017-04-24T08:34:46.659Z,4.07
2017-04-24T08:35:51.412Z,4.05
2017-04-24T08:36:56.957Z,4.92
2017-04-24T08:38:03.264Z,6.85
2017-04-24T08:39:10.763Z,5.42
2017-04-24T08:40:16.363Z,4.88
2017-04-24T08:41:21.956Z,5.05
2017-04-24T08:42:26.809Z,5.27
2017-04-24T08:43:32.243Z,4.98
2017-04-24T08:44:37.005Z,5.23
2017-04-24T08:45:42.600Z,4.92
2017-04-24T08:46:48.236Z,8.23
2017-04-24T08:47:53.802Z,5.02
2017-04-24T08:48:59.450Z,4.03
2017-04-24T08:50:04.998Z,6.00
2017-04-24T08:51:10.577Z,4.93
2017-04-24T08:52:15.211Z,7.18
2017-04-24T08:53:20.834Z,6.40
2017-04-24T08:54:26.382Z,6.72
2017-04-24T08:55:32.037Z,6.07
2017-04-24T08:56:38.497Z,5.02
2017-04-24T08:57:43.277Z,5.03
2017-04-24T08:58:48.769Z,4.95
2017-04-24T08:59:53.409Z,4.80
2017-04-24T09:00:58.990Z,4.48
2017-04-24T09:02:03.773Z,7.38
2017-04-24T09:03:09.413Z,6.27
2017-04-24T09:04:15.012Z,4.97
2017-04-24T09:05:20.659Z,5.70
2017-04-24T09:06:26.991Z,5.17
2017-04-24T09:07:31.761Z,6.62
2017-04-24T09:08:37.398Z,5.58
2017-04-24T09:09:42.861Z,4.40
2017-04-24T09:10:48.392Z,4.35
2017-04-24T09:11:54.124Z,3.90
2017-04-24T09:12:58.882Z,8.65
2017-04-24T09:14:06.947Z,5.45
2017-04-24T09:15:12.957Z,3.93
2017-04-24T09:16:17.669Z,4.95
2017-04-24T09:17:23.317Z,4.43
2017-04-24T09:18:28.886Z,3.65
2017-04-24T09:19:34.297Z,7.00
2017-04-24T09:20:39.748Z,5.20
2017-04-24T09:21:45.408Z,4.40
2017-04-24T09:22:51.061Z,7.32
2017-04-24T09:23:55.841Z,4.77
2017-04-24T09:25:01.435Z,4.18
2017-04-24T09:26:06.976Z,3.77
2017-04-24T09:27:12.576Z,3.75
2017-04-24T09:28:18.961Z,3.88
2017-04-24T09:29:23.837Z,6.15
2017-04-24T09:30:29.276Z,4.73
2017-04-24T09:31:34.941Z,5.22
2017-04-24T09:32:40.408Z,4.68
2017-04-24T09:33:46.041Z,5.67
2017-04-24T09:34:51.341Z,6.28
2017-04-24T09:35:57.653Z,6.75
2017-04-24T09:37:03.341Z,4.42
2017-04-24T09:38:08.136Z,5.80
2017-04-24T09:39:14.334Z,4.08
2017-04-24T09:40:19.090Z,4.62
2017-04-24T09:41:24.568Z,11.00
2017-04-24T09:42:30.796Z,4.60
2017-04-24T09:43:35.621Z,5.80
2017-04-24T09:44:41.129Z,4.75
2017-04-24T09:45:45.870Z,5.43
2017-04-24T09:46:52.177Z,5.67
2017-04-24T09:47:56.993Z,5.08
2017-04-24T09:49:02.616Z,5.60
2017-04-24T09:50:08.220Z,4.68
2017-04-24T09:51:14.566Z,6.90
2017-04-24T09:52:20.144Z,7.07
2017-04-24T09:53:25.005Z,5.77
2017-04-24T09:54:30.372Z,5.48
2017-04-24T09:55:36.152Z,6.03
2017-04-24T09:56:41.618Z,6.53
2017-04-24T09:57:48.032Z,8.57
2017-04-24T09:58:52.768Z,8.62
2017-04-24T09:59:57.440Z,8.25
2017-04-24T10:01:02.244Z,5.30
2017-04-24T10:02:07.641Z,5.77
2017-04-24T10:03:14.070Z,5.77
2017-04-24T10:04:19.635Z,6.95
2017-04-24T10:05:24.440Z,5.97
2017-04-24T10:06:31.738Z,5.82
2017-04-24T10:07:36.651Z,4.92
2017-04-24T10:08:42.040Z,5.08
2017-04-24T10:09:48.258Z,5.68
2017-04-24T10:10:53.113Z,6.52
2017-04-24T10:11:57.876Z,5.05
2017-04-24T10:13:03.548Z,5.35
2017-04-24T10:14:09.756Z,5.20
2017-04-24T10:15:14.520Z,4.87
2017-04-24T10:16:20.893Z,5.05
2017-04-24T10:17:25.705Z,4.80
2017-04-24T10:18:31.330Z,5.65
2017-04-24T10:19:37.508Z,4.58
2017-04-24T10:20:43.057Z,5.92
2017-04-24T10:21:47.964Z,5.88
2017-04-24T10:22:53.548Z,5.40
2017-04-24T10:23:58.961Z,6.52
2017-04-24T10:25:04.540Z,4.92
2017-04-24T10:26:10.688Z,5.95
2017-04-24T10:27:16.264Z,5.85
2017-04-24T10:28:21.172Z,4.67
2017-04-24T10:29:26.730Z,5.32
2017-04-24T10:30:31.421Z,4.27
2017-04-24T10:31:37.819Z,5.63
2017-04-24T10:32:42.653Z,5.60
2017-04-24T10:33:48.431Z,5.47
2017-04-24T10:34:53.861Z,5.05
2017-04-24T10:36:00.074Z,4.78
2017-04-24T10:37:04.910Z,4.67
2017-04-24T10:38:10.489Z,6.87
2017-04-24T10:39:17.721Z,3.93
2017-04-24T10:40:22.540Z,8.15
2017-04-24T10:41:28.168Z,5.88
2017-04-24T10:42:33.788Z,6.52
2017-04-24T10:43:39.385Z,5.52
2017-04-24T10:44:45.637Z,4.43
2017-04-24T10:45:50.553Z,4.78
2017-04-24T10:46:56.157Z,5.45
2017-04-24T10:48:01.797Z,7.88
2017-04-24T10:49:07.421Z,5.05
2017-04-24T10:50:13.616Z,5.47
2017-04-24T10:51:19.161Z,6.10
2017-04-24T10:52:23.949Z,5.18
2017-04-24T10:53:29.333Z,5.90
2017-04-24T10:54:35.589Z,5.55
2017-04-24T10:55:40.565Z,5.03
2017-04-24T10:56:46.055Z,5.38
2017-04-24T10:57:51.585Z,5.50
2017-04-24T10:58:57.965Z,6.12
2017-04-24T11:00:02.783Z,5.05
2017-04-24T11:01:09.037Z,5.35
2017-04-24T11:02:13.838Z,5.33
2017-04-24T11:03:20.234Z,5.33
2017-04-24T11:04:24.901Z,6.28
2017-04-24T11:05:30.421Z,5.37
2017-04-24T11:06:37.640Z,6.27
2017-04-24T11:07:43.167Z,8.48
2017-04-24T11:08:47.811Z,6.32
2017-04-24T11:09:53.330Z,6.08
2017-04-24T11:10:58.705Z,5.60
2017-04-24T11:12:05.083Z,5.93
2017-04-24T11:13:09.784Z,5.80
2017-04-24T11:14:15.183Z,7.15
2017-04-24T11:15:19.903Z,6.88
2017-04-24T11:16:25.393Z,7.43
2017-04-24T11:17:31.056Z,8.77
2017-04-24T11:18:37.266Z,5.18
2017-04-24T11:19:42.043Z,6.10
2017-04-24T11:20:47.528Z,8.72
2017-04-24T11:21:53.188Z,7.87
2017-04-24T11:22:58.745Z,6.43
2017-04-24T11:24:04.377Z,5.75
2017-04-24T11:25:09.990Z,7.63
2017-04-24T11:26:16.380Z,6.00
2017-04-24T11:27:21.281Z,7.30
2017-04-24T11:28:26.953Z,5.52
2017-04-24T11:29:32.525Z,5.77
2017-04-24T11:30:38.133Z,5.75
2017-04-24T11:31:43.657Z,16.13
2017-04-24T11:32:49.157Z,8.08
2017-04-24T11:33:56.226Z,5.35
2017-04-24T11:35:01.161Z,5.82
2017-04-24T11:36:06.598Z,5.95
2017-04-24T11:37:12.218Z,8.33
2017-04-24T11:38:17.797Z,7.00
2017-04-24T11:39:24.089Z,6.38
2017-04-24T11:40:28.977Z,6.47
2017-04-24T11:41:35.323Z,7.03
2017-04-24T11:42:40.062Z,6.38
2017-04-24T11:43:46.417Z,6.60
2017-04-24T11:44:51.253Z,5.95
2017-04-24T11:45:57.584Z,8.58
2017-04-24T11:47:02.388Z,6.48
2017-04-24T11:48:08.756Z,6.73
2017-04-24T11:49:14.348Z,6.63
2017-04-24T11:50:19.985Z,6.95
2017-04-24T11:51:24.740Z,6.12
2017-04-24T11:52:31.020Z,6.35
2017-04-24T11:53:35.805Z,6.63
2017-04-24T11:54:42.140Z,9.68
2017-04-24T11:55:46.989Z,6.17
2017-04-24T11:56:53.153Z,6.67
2017-04-24T11:57:57.897Z,6.82
2017-04-24T11:59:04.104Z,7.17
2017-04-24T12:00:08.878Z,6.33
2017-04-24T12:01:14.533Z,6.08
2017-04-24T12:02:20.728Z,8.62
2017-04-24T12:03:25.484Z,7.12
2017-04-24T12:04:30.114Z,8.97
2017-04-24T12:05:35.681Z,8.87
2017-04-24T12:06:41.196Z,7.87
2017-04-24T12:07:46.665Z,7.82
2017-04-24T12:08:51.570Z,7.97
2017-04-24T12:09:57.016Z,6.57
2017-04-24T12:11:01.808Z,12.30
2017-04-24T12:12:07.246Z,9.70
2017-04-24T12:13:12.728Z,7.42
2017-04-24T12:14:18.372Z,6.48
2017-04-24T12:15:23.008Z,6.88
2017-04-24T12:16:28.489Z,8.05
2017-04-24T12:17:34.876Z,6.55
2017-04-24T12:18:40.473Z,6.57
2017-04-24T12:19:46.140Z,6.57
2017-04-24T12:20:51.685Z,6.45
2017-04-24T12:21:56.480Z,7.83
2017-04-24T12:23:02.162Z,6.38
2017-04-24T12:24:07.741Z,5.77
2017-04-24T12:25:13.341Z,9.13
2017-04-24T12:26:18.913Z,8.50
2017-04-24T12:27:24.509Z,6.45
2017-04-24T12:28:30.076Z,8.22
2017-04-24T12:29:35.646Z,6.12
2017-04-24T12:30:42.113Z,8.00
2017-04-24T12:31:46.965Z,6.75
2017-04-24T12:32:52.348Z,6.48
2017-04-24T12:33:57.177Z,6.80
2017-04-24T12:35:03.540Z,6.65
2017-04-24T12:36:09.024Z,6.98
2017-04-24T12:37:13.950Z,10.12
2017-04-24T12:38:20.233Z,6.40
2017-04-24T12:39:26.697Z,6.43
2017-04-24T12:40:31.522Z,5.85
2017-04-24T12:41:37.048Z,5.28
2017-04-24T12:42:42.633Z,7.10
2017-04-24T12:43:48.216Z,6.53
2017-04-24T12:44:53.762Z,5.50
2017-04-24T12:45:58.481Z,5.05
2017-04-24T12:47:03.924Z,6.18
2017-04-24T12:48:09.452Z,4.68
2017-04-24T12:49:14.253Z,6.75
2017-04-24T12:50:19.989Z,6.30
2017-04-24T12:51:25.381Z,6.35
2017-04-24T12:52:31.669Z,6.03
2017-04-24T12:53:36.466Z,6.12
2017-04-24T12:54:41.188Z,5.85
2017-04-24T12:55:46.963Z,8.72
2017-04-24T12:56:52.312Z,6.17
2017-04-24T12:57:57.050Z,5.63
2017-04-24T12:59:02.688Z,5.35
2017-04-24T13:00:08.289Z,5.30
2017-04-24T13:01:13.893Z,4.33
2017-04-24T13:02:19.251Z,6.47
2017-04-24T13:03:24.716Z,5.48
2017-04-24T13:04:31.065Z,6.68
2017-04-24T13:05:36.586Z,5.75
2017-04-24T13:06:42.196Z,6.15
2017-04-24T13:07:46.973Z,5.53
2017-04-24T13:08:52.410Z,9.13
2017-04-24T13:09:57.225Z,5.67
2017-04-24T13:11:03.500Z,5.68
2017-04-24T13:12:08.319Z,6.27
2017-04-24T13:13:13.810Z,5.27
2017-04-24T13:14:19.337Z,5.73
2017-04-24T13:15:25.716Z,5.45
2017-04-24T13:16:31.348Z,4.93
2017-04-24T13:17:37.042Z,5.50
2017-04-24T13:18:41.905Z,6.47
2017-04-24T13:19:46.585Z,5.37
2017-04-24T13:20:52.856Z,5.78
2017-04-24T13:21:57.650Z,5.72
2017-04-24T13:23:03.241Z,6.93
2017-04-24T13:24:08.729Z,6.15
2017-04-24T13:25:15.812Z,6.40
2017-04-24T13:26:20.980Z,5.97
2017-04-24T13:27:26.481Z,6.25
2017-04-24T13:28:32.845Z,5.83
2017-04-24T13:29:38.276Z,6.75
2017-04-24T13:30:43.248Z,6.23
2017-04-24T13:31:48.881Z,6.65
2017-04-24T13:32:54.473Z,6.55
2017-04-24T13:33:59.949Z,5.62
2017-04-24T13:35:05.420Z,6.32
2017-04-24T13:36:10.881Z,7.80
2017-04-24T13:37:16.452Z,4.83
2017-04-24T13:38:22.737Z,5.25
2017-04-24T13:39:29.576Z,7.10
2017-04-24T13:40:35.853Z,8.12
2017-04-24T13:41:41.010Z,5.58
2017-04-24T13:42:46.613Z,6.40
2017-04-24T13:43:52.101Z,5.88
2017-04-24T13:44:56.901Z,5.80
2017-04-24T13:46:03.252Z,5.62
2017-04-24T13:47:08.017Z,7.60
2017-04-24T13:48:13.466Z,6.57
2017-04-24T13:49:19.916Z,5.60
2017-04-24T13:50:24.742Z,6.23
2017-04-24T13:51:30.181Z,5.73
2017-04-24T13:52:35.761Z,6.23
2017-04-24T13:53:40.458Z,6.60
2017-04-24T13:54:46.761Z,6.98
2017-04-24T13:55:51.532Z,6.67
2017-04-24T13:56:57.493Z,6.30
2017-04-24T13:58:03.443Z,6.63
2017-04-24T13:59:08.285Z,6.62
2017-04-24T14:00:13.065Z,6.62
2017-04-24T14:01:18.661Z,6.38
2017-04-24T14:02:24.868Z,6.02
2017-04-24T14:03:30.496Z,7.08
2017-04-24T14:04:36.053Z,6.70
2017-04-24T14:05:40.979Z,6.22
2017-04-24T14:06:46.564Z,6.37
2017-04-24T14:07:51.437Z,6.45
2017-04-24T14:08:57.781Z,6.43
2017-04-24T14:10:02.721Z,6.23
2017-04-24T14:11:08.268Z,5.87
2017-04-24T14:12:13.813Z,6.02
2017-04-24T14:13:19.428Z,7.32
2017-04-24T14:14:24.239Z,6.28
2017-04-24T14:15:29.093Z,5.88
2017-04-24T14:16:34.678Z,6.08
2017-04-24T14:17:40.986Z,5.68
2017-04-24T14:18:46.517Z,8.02
2017-04-24T14:19:51.417Z,5.13
2017-04-24T14:20:57.836Z,6.18
2017-04-24T14:22:03.536Z,5.83
2017-04-24T14:23:08.534Z,5.83
2017-04-24T14:24:14.656Z,5.73
2017-04-24T14:25:19.441Z,5.03
2017-04-24T14:26:25.858Z,6.27
2017-04-24T14:27:30.685Z,5.58
2017-04-24T14:28:36.346Z,5.48
2017-04-24T14:29:41.909Z,5.98
2017-04-24T14:30:47.401Z,6.27
2017-04-24T14:31:53.685Z,6.72
2017-04-24T14:32:59.241Z,6.32
2017-04-24T14:34:05.026Z,5.78
2017-04-24T14:35:09.768Z,5.92
2017-04-24T14:36:16.117Z,5.85
2017-04-24T14:37:20.997Z,5.40
2017-04-24T14:38:26.564Z,6.57
2017-04-24T14:39:33.100Z,5.62
2017-04-24T14:40:37.948Z,4.82
2017-04-24T14:41:43.456Z,5.32